Seven Seas Voyager — C6SW3 — position and weather

sailwx.info

Track history (hours):
 
Tides and Currents Weather Stations Pressure Air Temp Water Temp Dewpoint Dewpoint Depression Visibility Wind Speed Wind Dir Waves Ship Positions

Seven Seas Voyager

Last reported at 2018-Nov-10 18:00 UTC. Time now 2018-Nov-13 06:36 UTC.
Position N 43°08' E 005°08'.

Length 205 m; draft 7 m.

Type: Ship. MMSI: 31151000.

Date/timePositionNaut miles runAvg speedWind from/ knotsBaromVisibWave heightAir tempDewpointWater temp
2018-Nov-10 18:00N 43°08' E 005°08'715.7
2018-Nov-10 17:32N 43°14' E 005°13'815.0
2018-Nov-10 17:02N 43°21' E 005°18'2 0.2
2018-Nov-10 09:11N 43°21' E 005°20'0 0.0
2018-Nov-10 08:29N 43°21' E 005°20'0 0.0
2018-Nov-10 07:59N 43°21' E 005°20'0 0.0
2018-Nov-10 07:29N 43°21' E 005°20'0 0.0
2018-Nov-10 06:41N 43°21' E 005°20'0 0.0
2018-Nov-10 05:29N 43°21' E 005°20'0 0.0
2018-Nov-10 04:59N 43°21' E 005°20'1 2.8
2018-Nov-10 04:29N 43°21' E 005°19'511.6
2018-Nov-10 04:01N 43°16' E 005°15'39112.7
2018-Nov-08 21:16N 40°44' E 013°20'311.9
2018-Nov-08 21:02N 40°43' E 013°23'612.1
2018-Nov-08 20:32N 40°42' E 013°31'612.3
2018-Nov-08 20:02N 40°41' E 013°39'612.2
2018-Nov-08 19:32N 40°40' E 013°47'612.0
2018-Nov-08 19:02N 40°39' E 013°55'611.9
2018-Nov-08 18:32N 40°39' E 014°02'612.0
2018-Nov-08 18:02N 40°42' E 014°09'612.0
2018-Nov-08 17:32N 40°46' E 014°15'4 8.1
2018-Nov-08 17:03N 40°50' E 014°16'0 0.8
2018-Nov-08 16:30N 40°50' E 014°15'0 0.0
2018-Nov-08 16:00N 40°50' E 014°15'0 0.0
2018-Nov-08 15:30N 40°50' E 014°15'0 0.0
2018-Nov-08 15:00N 40°50' E 014°15'0 0.0
2018-Nov-08 14:30N 40°50' E 014°15'0 0.0
2018-Nov-08 14:00N 40°50' E 014°15'0 0.0
2018-Nov-08 13:30N 40°50' E 014°15'0 0.0
2018-Nov-08 13:00N 40°50' E 014°15'0 0.0
2018-Nov-08 12:30N 40°50' E 014°15'0 0.0
2018-Nov-08 12:00N 40°50' E 014°15'0 0.0
2018-Nov-08 11:24N 40°50' E 014°15'0 0.0
2018-Nov-08 10:54N 40°50' E 014°15'0 0.0
2018-Nov-08 10:30N 40°50' E 014°15'0 0.0
2018-Nov-08 10:00N 40°50' E 014°15'0 0.0
2018-Nov-08 09:30N 40°50' E 014°15'0 0.0
2018-Nov-08 09:00N 40°50' E 014°15'0 0.0
2018-Nov-08 08:30N 40°50' E 014°15'0 0.0
2018-Nov-08 08:00N 40°50' E 014°15'0 0.0
2018-Nov-08 07:30N 40°50' E 014°15'0 0.0
2018-Nov-08 07:02N 40°50' E 014°15'1 1.3
2018-Nov-08 06:33N 40°50' E 014°16'5 9.3
2018-Nov-08 06:03N 40°46' E 014°15'715.0
2018-Nov-08 05:33N 40°41' E 014°07'714.5
2018-Nov-08 05:03N 40°39' E 013°58'714.6
2018-Nov-08 04:33N 40°39' E 013°48'714.4
2018-Nov-08 04:02N 40°41' E 013°39'814.4
2018-Nov-08 03:29N 40°42' E 013°28'201 7.1
2018-Nov-06 23:14N 42°50' E 010°01'313.9
2018-Nov-06 23:00N 42°53' E 010°02'1414.0
2018-Nov-06 22:00N 43°07' E 010°06'713.8
2018-Nov-06 21:30N 43°14' E 010°08'614.0
2018-Nov-06 21:03N 43°20' E 010°09'113.9
2018-Nov-06 21:00N 43°21' E 010°09'714.0
2018-Nov-06 20:30N 43°27' E 010°11'512.0
2018-Nov-06 20:03N 43°32' E 010°15'0 9.8
2018-Nov-06 20:00N 43°32' E 010°15'2 2.9
2018-Nov-06 19:23N 43°33' E 010°18'0 0.0
2018-Nov-06 18:59N 43°33' E 010°18'0 0.0
2018-Nov-06 18:29N 43°33' E 010°18'0 0.0
2018-Nov-06 17:53N 43°33' E 010°18'0 0.0
2018-Nov-06 17:29N 43°33' E 010°18'0 0.0
2018-Nov-06 16:59N 43°33' E 010°18'0 0.0
2018-Nov-06 16:29N 43°33' E 010°18'0 0.0
2018-Nov-06 15:59N 43°33' E 010°18'0 0.0
2018-Nov-06 15:29N 43°33' E 010°18'0 0.0
2018-Nov-06 14:59N 43°33' E 010°18'0 0.0
2018-Nov-06 14:29N 43°33' E 010°18'0 0.0
2018-Nov-06 13:59N 43°33' E 010°18'0 0.0
2018-Nov-06 13:29N 43°33' E 010°18'0 0.0
2018-Nov-06 12:59N 43°33' E 010°18'0 0.0
2018-Nov-06 12:29N 43°33' E 010°18'0 0.0
2018-Nov-06 11:59N 43°33' E 010°18'0 0.0
2018-Nov-06 11:29N 43°33' E 010°18'0 0.0
2018-Nov-06 10:59N 43°33' E 010°18'0 0.0
2018-Nov-06 10:29N 43°33' E 010°18'0 0.0
2018-Nov-06 09:59N 43°33' E 010°18'0 0.0
2018-Nov-06 09:29N 43°33' E 010°18'0 0.0
2018-Nov-06 08:56N 43°33' E 010°18'1 2.2
2018-Nov-06 08:30N 43°32' E 010°17'4 9.3
2018-Nov-06 08:03N 43°30' E 010°12'116.1
2018-Nov-06 08:00N 43°29' E 010°11'815.6
2018-Nov-06 07:30N 43°30' E 010°01'715.4
2018-Nov-06 07:03N 43°30' E 009°51'116.0
2018-Nov-06 07:00N 43°30' E 009°50'815.6
2018-Nov-06 06:30N 43°29' E 009°40'715.7
2018-Nov-06 06:03N 43°27' E 009°30'115.8
2018-Nov-06 06:00N 43°27' E 009°29'816.0
2018-Nov-06 05:30N 43°25' E 009°18'716.0
2018-Nov-06 05:03N 43°24' E 009°09'115.9
2018-Nov-06 05:00N 43°23' E 009°07'815.7
2018-Nov-06 04:30N 43°22' E 008°57'915.9
2018-Nov-06 03:56N 43°20' E 008°44'715.7
2018-Nov-06 03:30N 43°18' E 008°35'715.6
2018-Nov-06 03:03N 43°17' E 008°26'115.7
2018-Nov-06 03:00N 43°17' E 008°25'815.8
2018-Nov-06 02:30N 43°15' E 008°14'715.9
2018-Nov-06 02:03N 43°13' E 008°05'115.9
2018-Nov-06 02:00N 43°13' E 008°04'816.0
2018-Nov-06 01:30N 43°12' E 007°53'1716.5
2018-Nov-06 00:30N 43°08' E 007°31'1616.5
2018-Nov-05 23:30N 43°04' E 007°09'816.5
2018-Nov-05 23:02N 43°03' E 006°58'016.3
2018-Nov-05 23:00N 43°03' E 006°58'815.6
2018-Nov-05 22:29N 43°01' E 006°47'6614.3
2018-Nov-05 17:51N 43°12' E 005°18'615.5
2018-Nov-05 17:30N 43°18' E 005°16'4 0.5
2018-Nov-05 09:30N 43°20' E 005°20'0 0.0
2018-Nov-05 07:12N 43°20' E 005°20'0 0.0
2018-Nov-04 22:12N 43°20' E 005°20'0 0.0
2018-Nov-04 21:36N 43°20' E 005°20'0 0.0
2018-Nov-04 19:30N 43°20' E 005°20'0 0.0
2018-Nov-04 09:24N 43°20' E 005°20'0 0.0
2018-Nov-04 07:24N 43°20' E 005°20'0 0.0
2018-Nov-04 06:57N 43°20' E 005°20'1 2.7
2018-Nov-04 06:26N 43°21' E 005°19'3 6.7
2018-Nov-04 06:03N 43°20' E 005°16'110.5
2018-Nov-04 06:00N 43°19' E 005°15'612.9
2018-Nov-04 05:30N 43°15' E 005°09'914.4
2018-Nov-04 04:53N 43°08' E 005°01'14714.9
2018-Nov-03 19:02N 41°26' E 002°38'015.5
2018-Nov-03 19:00N 41°26' E 002°37'815.9
2018-Nov-03 18:30N 41°23' E 002°28'716.0
2018-Nov-03 18:04N 41°19' E 002°19'116.2
2018-Nov-03 18:01N 41°19' E 002°18'611.9
2018-Nov-03 17:30N 41°18' E 002°10'4 8.1
2018-Nov-03 17:03N 41°22' E 002°11'0 0.5
2018-Nov-03 17:00N 41°22' E 002°11'0 0.0
2018-Nov-03 16:30N 41°22' E 002°11'0 0.0
2018-Nov-03 16:00N 41°22' E 002°11'0 0.0
2018-Nov-03 15:30N 41°22' E 002°11'0 0.0
2018-Nov-03 15:00N 41°22' E 002°11'0 0.0
2018-Nov-03 14:24N 41°22' E 002°11'0 0.0
2018-Nov-03 14:00N 41°22' E 002°11'0 0.0
2018-Nov-03 13:24N 41°22' E 002°11'0 0.0
2018-Nov-03 13:00N 41°22' E 002°11'0 0.0
2018-Nov-03 12:30N 41°22' E 002°11'0 0.0
2018-Nov-03 12:00N 41°22' E 002°11'0 0.0
2018-Nov-03 11:30N 41°22' E 002°11'0 0.0
2018-Nov-03 10:54N 41°22' E 002°11'0 0.0
2018-Nov-03 10:30N 41°22' E 002°11'0 0.0
2018-Nov-03 09:06N 41°22' E 002°11'0 0.0
2018-Nov-03 08:10N 41°22' E 002°11'0 0.0
2018-Nov-03 08:03N 41°22' E 002°11'0 0.2
2018-Nov-03 08:00N 41°22' E 002°11'2 3.4
2018-Nov-03 07:30N 41°20' E 002°10'4 9.8
2018-Nov-03 07:03N 41°16' E 002°11'112.0
2018-Nov-03 07:00N 41°15' E 002°11'611.9
2018-Nov-03 06:28N 41°09' E 002°12'6116.8
2018-Nov-03 02:52N 40°08' E 002°15'3815.8
2018-Nov-03 00:26N 39°30' E 002°21'617.0
2018-Nov-03 00:03N 39°26' E 002°28'116.9
2018-Nov-03 00:00N 39°26' E 002°29'815.3
2018-Nov-02 23:30N 39°31' E 002°37'3 5.2
2018-Nov-02 22:59N 39°33' E 002°38'0 0.0
2018-Nov-02 22:23N 39°33' E 002°38'0 0.0
2018-Nov-02 21:59N 39°33' E 002°38'0 0.0
2018-Nov-02 21:29N 39°33' E 002°38'0 0.0
2018-Nov-02 20:59N 39°33' E 002°38'0 0.0
2018-Nov-02 20:29N 39°33' E 002°38'0 0.0
2018-Nov-02 19:59N 39°33' E 002°38'0 0.0
2018-Nov-02 19:29N 39°33' E 002°38'0 0.0
2018-Nov-02 18:59N 39°33' E 002°38'0 0.0
2018-Nov-02 18:29N 39°33' E 002°38'0 0.0
2018-Nov-02 17:59N 39°33' E 002°38'0 0.0
2018-Nov-02 17:29N 39°33' E 002°38'0 0.0
2018-Nov-02 16:59N 39°33' E 002°38'0 0.0
2018-Nov-02 16:29N 39°33' E 002°38'0 0.0
2018-Nov-02 15:59N 39°33' E 002°38'0 0.0
2018-Nov-02 15:29N 39°33' E 002°38'0 0.0
2018-Nov-02 14:59N 39°33' E 002°38'0 0.0
2018-Nov-02 14:29N 39°33' E 002°38'0 0.0
2018-Nov-02 13:59N 39°33' E 002°38'0 0.0
2018-Nov-02 13:30N 39°33' E 002°38'0 0.0
2018-Nov-02 13:03N 39°33' E 002°38'0 0.0
2018-Nov-02 13:00N 39°33' E 002°38'0 0.0
2018-Nov-02 12:23N 39°33' E 002°38'0 0.0
2018-Nov-02 12:03N 39°33' E 002°38'0 0.0
2018-Nov-02 12:00N 39°33' E 002°38'1 1.4
2018-Nov-02 11:30N 39°33' E 002°39'511.2
2018-Nov-02 11:03N 39°28' E 002°40'114.3
2018-Nov-02 11:00N 39°28' E 002°40'713.9
2018-Nov-02 10:30N 39°21' E 002°43'614.0
2018-Nov-02 10:03N 39°16' E 002°48'114.3
2018-Nov-02 10:00N 39°15' E 002°48'713.6
2018-Nov-02 09:30N 39°09' E 002°51'511.6
2018-Nov-02 09:03N 39°06' E 002°57'113.4
2018-Nov-02 09:00N 39°06' E 002°58'713.6
2018-Nov-02 08:30N 39°09' E 003°06'614.2
2018-Nov-02 08:03N 39°12' E 003°13'114.0
2018-Nov-02 08:00N 39°12' E 003°14'714.2
2018-Nov-02 07:29N 39°16' E 003°22'615.0
2018-Nov-02 07:03N 39°20' E 003°29'115.2
2018-Nov-02 07:00N 39°20' E 003°29'815.1
2018-Nov-02 06:26N 39°25' E 003°39'29710.2
2018-Nov-01 01:20N 42°40' E 008°34'514.2
2018-Nov-01 00:57N 42°45' E 008°39'613.9
2018-Nov-01 00:30N 42°48' E 008°46'1513.9
2018-Oct-31 23:24N 42°58' E 009°02'513.9
2018-Oct-31 23:03N 43°00' E 009°07'113.9
2018-Oct-31 23:00N 43°01' E 009°08'714.1
2018-Oct-31 22:30N 43°05' E 009°16'614.2
2018-Oct-31 22:03N 43°09' E 009°23'114.1
2018-Oct-31 22:00N 43°09' E 009°24'713.2
2018-Oct-31 21:30N 43°13' E 009°32'613.6
2018-Oct-31 21:03N 43°14' E 009°40'113.9
2018-Oct-31 21:00N 43°14' E 009°41'714.1
2018-Oct-31 20:30N 43°17' E 009°50'614.2
2018-Oct-31 20:03N 43°20' E 009°58'114.1
2018-Oct-31 20:00N 43°20' E 009°58'714.2
2018-Oct-31 19:30N 43°25' E 010°05'614.4
2018-Oct-31 19:03N 43°30' E 010°11'114.5
2018-Oct-31 19:00N 43°30' E 010°12'5 9.7
2018-Oct-31 18:30N 43°33' E 010°17'  
Track history (hours):
 
Tides and Currents Weather Stations Pressure Air Temp Water Temp Dewpoint Dewpoint Depression Visibility Wind Speed Wind Dir Waves Ship Positions

Seven Seas Voyager

Last reported at 2018-Nov-10 18:00 UTC. Time now 2018-Nov-13 06:36 UTC.
Position N 43°08' E 005°08'.

Length 205 m; draft 7 m.

Type: Ship. MMSI: 31151000.

Date/timePositionNaut miles runAvg speedWind from/ knotsBaromVisibWave heightAir tempDewpointWater temp
2018-Nov-10 18:00N 43°08' E 005°08'715.7
2018-Nov-10 17:32N 43°14' E 005°13'815.0
2018-Nov-10 17:02N 43°21' E 005°18'2 0.2
2018-Nov-10 09:11N 43°21' E 005°20'0 0.0
2018-Nov-10 08:29N 43°21' E 005°20'0 0.0
2018-Nov-10 07:59N 43°21' E 005°20'0 0.0
2018-Nov-10 07:29N 43°21' E 005°20'0 0.0
2018-Nov-10 06:41N 43°21' E 005°20'0 0.0
2018-Nov-10 05:29N 43°21' E 005°20'0 0.0
2018-Nov-10 04:59N 43°21' E 005°20'1 2.8
2018-Nov-10 04:29N 43°21' E 005°19'511.6
2018-Nov-10 04:01N 43°16' E 005°15'39112.7
2018-Nov-08 21:16N 40°44' E 013°20'311.9
2018-Nov-08 21:02N 40°43' E 013°23'612.1
2018-Nov-08 20:32N 40°42' E 013°31'612.3
2018-Nov-08 20:02N 40°41' E 013°39'612.2
2018-Nov-08 19:32N 40°40' E 013°47'612.0
2018-Nov-08 19:02N 40°39' E 013°55'611.9
2018-Nov-08 18:32N 40°39' E 014°02'612.0
2018-Nov-08 18:02N 40°42' E 014°09'612.0
2018-Nov-08 17:32N 40°46' E 014°15'4 8.1
2018-Nov-08 17:03N 40°50' E 014°16'0 0.8
2018-Nov-08 16:30N 40°50' E 014°15'0 0.0
2018-Nov-08 16:00N 40°50' E 014°15'0 0.0
2018-Nov-08 15:30N 40°50' E 014°15'0 0.0
2018-Nov-08 15:00N 40°50' E 014°15'0 0.0
2018-Nov-08 14:30N 40°50' E 014°15'0 0.0
2018-Nov-08 14:00N 40°50' E 014°15'0 0.0
2018-Nov-08 13:30N 40°50' E 014°15'0 0.0
2018-Nov-08 13:00N 40°50' E 014°15'0 0.0
2018-Nov-08 12:30N 40°50' E 014°15'0 0.0
2018-Nov-08 12:00N 40°50' E 014°15'0 0.0
2018-Nov-08 11:24N 40°50' E 014°15'0 0.0
2018-Nov-08 10:54N 40°50' E 014°15'0 0.0
2018-Nov-08 10:30N 40°50' E 014°15'0 0.0
2018-Nov-08 10:00N 40°50' E 014°15'0 0.0
2018-Nov-08 09:30N 40°50' E 014°15'0 0.0
2018-Nov-08 09:00N 40°50' E 014°15'0 0.0
2018-Nov-08 08:30N 40°50' E 014°15'0 0.0
2018-Nov-08 08:00N 40°50' E 014°15'0 0.0
2018-Nov-08 07:30N 40°50' E 014°15'0 0.0
2018-Nov-08 07:02N 40°50' E 014°15'1 1.3
2018-Nov-08 06:33N 40°50' E 014°16'5 9.3
2018-Nov-08 06:03N 40°46' E 014°15'715.0
2018-Nov-08 05:33N 40°41' E 014°07'714.5
2018-Nov-08 05:03N 40°39' E 013°58'714.6
2018-Nov-08 04:33N 40°39' E 013°48'714.4
2018-Nov-08 04:02N 40°41' E 013°39'814.4
2018-Nov-08 03:29N 40°42' E 013°28'201 7.1
2018-Nov-06 23:14N 42°50' E 010°01'313.9
2018-Nov-06 23:00N 42°53' E 010°02'1414.0
2018-Nov-06 22:00N 43°07' E 010°06'713.8
2018-Nov-06 21:30N 43°14' E 010°08'614.0
2018-Nov-06 21:03N 43°20' E 010°09'113.9
2018-Nov-06 21:00N 43°21' E 010°09'714.0
2018-Nov-06 20:30N 43°27' E 010°11'512.0
2018-Nov-06 20:03N 43°32' E 010°15'0 9.8
2018-Nov-06 20:00N 43°32' E 010°15'2 2.9
2018-Nov-06 19:23N 43°33' E 010°18'0 0.0
2018-Nov-06 18:59N 43°33' E 010°18'0 0.0
2018-Nov-06 18:29N 43°33' E 010°18'0 0.0
2018-Nov-06 17:53N 43°33' E 010°18'0 0.0
2018-Nov-06 17:29N 43°33' E 010°18'0 0.0
2018-Nov-06 16:59N 43°33' E 010°18'0 0.0
2018-Nov-06 16:29N 43°33' E 010°18'0 0.0
2018-Nov-06 15:59N 43°33' E 010°18'0 0.0
2018-Nov-06 15:29N 43°33' E 010°18'0 0.0
2018-Nov-06 14:59N 43°33' E 010°18'0 0.0
2018-Nov-06 14:29N 43°33' E 010°18'0 0.0
2018-Nov-06 13:59N 43°33' E 010°18'0 0.0
2018-Nov-06 13:29N 43°33' E 010°18'0 0.0
2018-Nov-06 12:59N 43°33' E 010°18'0 0.0
2018-Nov-06 12:29N 43°33' E 010°18'0 0.0
2018-Nov-06 11:59N 43°33' E 010°18'0 0.0
2018-Nov-06 11:29N 43°33' E 010°18'0 0.0
2018-Nov-06 10:59N 43°33' E 010°18'0 0.0
2018-Nov-06 10:29N 43°33' E 010°18'0 0.0
2018-Nov-06 09:59N 43°33' E 010°18'0 0.0
2018-Nov-06 09:29N 43°33' E 010°18'0 0.0
2018-Nov-06 08:56N 43°33' E 010°18'1 2.2
2018-Nov-06 08:30N 43°32' E 010°17'4 9.3
2018-Nov-06 08:03N 43°30' E 010°12'116.1
2018-Nov-06 08:00N 43°29' E 010°11'815.6
2018-Nov-06 07:30N 43°30' E 010°01'715.4
2018-Nov-06 07:03N 43°30' E 009°51'116.0
2018-Nov-06 07:00N 43°30' E 009°50'815.6
2018-Nov-06 06:30N 43°29' E 009°40'715.7
2018-Nov-06 06:03N 43°27' E 009°30'115.8
2018-Nov-06 06:00N 43°27' E 009°29'816.0
2018-Nov-06 05:30N 43°25' E 009°18'716.0
2018-Nov-06 05:03N 43°24' E 009°09'115.9
2018-Nov-06 05:00N 43°23' E 009°07'815.7
2018-Nov-06 04:30N 43°22' E 008°57'915.9
2018-Nov-06 03:56N 43°20' E 008°44'715.7
2018-Nov-06 03:30N 43°18' E 008°35'715.6
2018-Nov-06 03:03N 43°17' E 008°26'115.7
2018-Nov-06 03:00N 43°17' E 008°25'815.8
2018-Nov-06 02:30N 43°15' E 008°14'715.9
2018-Nov-06 02:03N 43°13' E 008°05'115.9
2018-Nov-06 02:00N 43°13' E 008°04'816.0
2018-Nov-06 01:30N 43°12' E 007°53'1716.5
2018-Nov-06 00:30N 43°08' E 007°31'1616.5
2018-Nov-05 23:30N 43°04' E 007°09'816.5
2018-Nov-05 23:02N 43°03' E 006°58'016.3
2018-Nov-05 23:00N 43°03' E 006°58'815.6
2018-Nov-05 22:29N 43°01' E 006°47'6614.3
2018-Nov-05 17:51N 43°12' E 005°18'615.5
2018-Nov-05 17:30N 43°18' E 005°16'4 0.5
2018-Nov-05 09:30N 43°20' E 005°20'0 0.0
2018-Nov-05 07:12N 43°20' E 005°20'0 0.0
2018-Nov-04 22:12N 43°20' E 005°20'0 0.0
2018-Nov-04 21:36N 43°20' E 005°20'0 0.0
2018-Nov-04 19:30N 43°20' E 005°20'0 0.0
2018-Nov-04 09:24N 43°20' E 005°20'0 0.0
2018-Nov-04 07:24N 43°20' E 005°20'0 0.0
2018-Nov-04 06:57N 43°20' E 005°20'1 2.7
2018-Nov-04 06:26N 43°21' E 005°19'3 6.7
2018-Nov-04 06:03N 43°20' E 005°16'110.5
2018-Nov-04 06:00N 43°19' E 005°15'612.9
2018-Nov-04 05:30N 43°15' E 005°09'914.4
2018-Nov-04 04:53N 43°08' E 005°01'14714.9
2018-Nov-03 19:02N 41°26' E 002°38'015.5
2018-Nov-03 19:00N 41°26' E 002°37'815.9
2018-Nov-03 18:30N 41°23' E 002°28'716.0
2018-Nov-03 18:04N 41°19' E 002°19'116.2
2018-Nov-03 18:01N 41°19' E 002°18'611.9
2018-Nov-03 17:30N 41°18' E 002°10'4 8.1
2018-Nov-03 17:03N 41°22' E 002°11'0 0.5
2018-Nov-03 17:00N 41°22' E 002°11'0 0.0
2018-Nov-03 16:30N 41°22' E 002°11'0 0.0
2018-Nov-03 16:00N 41°22' E 002°11'0 0.0
2018-Nov-03 15:30N 41°22' E 002°11'0 0.0
2018-Nov-03 15:00N 41°22' E 002°11'0 0.0
2018-Nov-03 14:24N 41°22' E 002°11'0 0.0
2018-Nov-03 14:00N 41°22' E 002°11'0 0.0
2018-Nov-03 13:24N 41°22' E 002°11'0 0.0
2018-Nov-03 13:00N 41°22' E 002°11'0 0.0
2018-Nov-03 12:30N 41°22' E 002°11'0 0.0
2018-Nov-03 12:00N 41°22' E 002°11'0 0.0
2018-Nov-03 11:30N 41°22' E 002°11'0 0.0
2018-Nov-03 10:54N 41°22' E 002°11'0 0.0
2018-Nov-03 10:30N 41°22' E 002°11'0 0.0
2018-Nov-03 09:06N 41°22' E 002°11'0 0.0
2018-Nov-03 08:10N 41°22' E 002°11'0 0.0
2018-Nov-03 08:03N 41°22' E 002°11'0 0.2
2018-Nov-03 08:00N 41°22' E 002°11'2 3.4
2018-Nov-03 07:30N 41°20' E 002°10'4 9.8
2018-Nov-03 07:03N 41°16' E 002°11'112.0
2018-Nov-03 07:00N 41°15' E 002°11'611.9
2018-Nov-03 06:28N 41°09' E 002°12'6116.8
2018-Nov-03 02:52N 40°08' E 002°15'3815.8
2018-Nov-03 00:26N 39°30' E 002°21'617.0
2018-Nov-03 00:03N 39°26' E 002°28'116.9
2018-Nov-03 00:00N 39°26' E 002°29'815.3
2018-Nov-02 23:30N 39°31' E 002°37'3 5.2
2018-Nov-02 22:59N 39°33' E 002°38'0 0.0
2018-Nov-02 22:23N 39°33' E 002°38'0 0.0
2018-Nov-02 21:59N 39°33' E 002°38'0 0.0
2018-Nov-02 21:29N 39°33' E 002°38'0 0.0
2018-Nov-02 20:59N 39°33' E 002°38'0 0.0
2018-Nov-02 20:29N 39°33' E 002°38'0 0.0
2018-Nov-02 19:59N 39°33' E 002°38'0 0.0
2018-Nov-02 19:29N 39°33' E 002°38'0 0.0
2018-Nov-02 18:59N 39°33' E 002°38'0 0.0
2018-Nov-02 18:29N 39°33' E 002°38'0 0.0
2018-Nov-02 17:59N 39°33' E 002°38'0 0.0
2018-Nov-02 17:29N 39°33' E 002°38'0 0.0
2018-Nov-02 16:59N 39°33' E 002°38'0 0.0
2018-Nov-02 16:29N 39°33' E 002°38'0 0.0
2018-Nov-02 15:59N 39°33' E 002°38'0 0.0
2018-Nov-02 15:29N 39°33' E 002°38'0 0.0
2018-Nov-02 14:59N 39°33' E 002°38'0 0.0
2018-Nov-02 14:29N 39°33' E 002°38'0 0.0
2018-Nov-02 13:59N 39°33' E 002°38'0 0.0
2018-Nov-02 13:30N 39°33' E 002°38'0 0.0
2018-Nov-02 13:03N 39°33' E 002°38'0 0.0
2018-Nov-02 13:00N 39°33' E 002°38'0 0.0
2018-Nov-02 12:23N 39°33' E 002°38'0 0.0
2018-Nov-02 12:03N 39°33' E 002°38'0 0.0
2018-Nov-02 12:00N 39°33' E 002°38'1 1.4
2018-Nov-02 11:30N 39°33' E 002°39'511.2
2018-Nov-02 11:03N 39°28' E 002°40'114.3
2018-Nov-02 11:00N 39°28' E 002°40'713.9
2018-Nov-02 10:30N 39°21' E 002°43'614.0
2018-Nov-02 10:03N 39°16' E 002°48'114.3
2018-Nov-02 10:00N 39°15' E 002°48'713.6
2018-Nov-02 09:30N 39°09' E 002°51'511.6
2018-Nov-02 09:03N 39°06' E 002°57'113.4
2018-Nov-02 09:00N 39°06' E 002°58'713.6
2018-Nov-02 08:30N 39°09' E 003°06'614.2
2018-Nov-02 08:03N 39°12' E 003°13'114.0
2018-Nov-02 08:00N 39°12' E 003°14'714.2
2018-Nov-02 07:29N 39°16' E 003°22'615.0
2018-Nov-02 07:03N 39°20' E 003°29'115.2
2018-Nov-02 07:00N 39°20' E 003°29'815.1
2018-Nov-02 06:26N 39°25' E 003°39'29710.2
2018-Nov-01 01:20N 42°40' E 008°34'514.2
2018-Nov-01 00:57N 42°45' E 008°39'613.9
2018-Nov-01 00:30N 42°48' E 008°46'1513.9
2018-Oct-31 23:24N 42°58' E 009°02'513.9
2018-Oct-31 23:03N 43°00' E 009°07'113.9
2018-Oct-31 23:00N 43°01' E 009°08'714.1
2018-Oct-31 22:30N 43°05' E 009°16'614.2
2018-Oct-31 22:03N 43°09' E 009°23'114.1
2018-Oct-31 22:00N 43°09' E 009°24'713.2
2018-Oct-31 21:30N 43°13' E 009°32'613.6
2018-Oct-31 21:03N 43°14' E 009°40'113.9
2018-Oct-31 21:00N 43°14' E 009°41'714.1
2018-Oct-31 20:30N 43°17' E 009°50'614.2
2018-Oct-31 20:03N 43°20' E 009°58'114.1
2018-Oct-31 20:00N 43°20' E 009°58'714.2
2018-Oct-31 19:30N 43°25' E 010°05'614.4
2018-Oct-31 19:03N 43°30' E 010°11'114.5
2018-Oct-31 19:00N 43°30' E 010°12'5 9.7
2018-Oct-31 18:30N 43°33' E 010°17'  

Dump ship's entire track history